Bowdoinham, Maine
Current Conditions -  °F | °C
As of 7:53 AM on Friday 28 Nov 2014 (Local Time) from KIWI Reporting Station
Overcast Overcast  
Wind Chill: 23°   Ceiling: 6500
Heat Index: 23°   Visibility: 10mi
Dew Point: 17°   Wind: 0mph
Humidity: 78%   Direction: NA
Pressure: 30.07"   Gusts: NA
Location:  44.01°N, 69.9°W
Report Text: KIWI 281253Z AUTO 00000KT 10SM OVC065 M05/M08 A3007 RMK AO2 SLP182 T10501083
Loading
Personal Weather Stations






























Interactive Weather Map New forecast layout! Learn more

10-Day Weather Forecast

Advertisements
Track Severe Weather on mobile